createdAt,value
2023-09-02T00:00:52.672Z,13.60
2023-09-02T00:03:20.201Z,13.50
2023-09-02T00:05:48.728Z,13.60
2023-09-02T00:08:16.265Z,13.50
2023-09-02T00:10:43.443Z,13.50
2023-09-02T00:13:10.750Z,13.50
2023-09-02T00:15:38.216Z,13.60
2023-09-02T00:18:05.559Z,13.50
2023-09-02T00:20:32.850Z,13.50
2023-09-02T00:23:01.200Z,13.50
2023-09-02T00:25:29.601Z,13.50
2023-09-02T00:27:56.727Z,13.50
2023-09-02T00:30:24.020Z,13.50
2023-09-02T00:32:51.275Z,13.50
2023-09-02T00:35:18.593Z,13.40
2023-09-02T00:37:45.783Z,13.30
2023-09-02T00:40:16.762Z,13.30
2023-09-02T00:42:46.074Z,13.30
2023-09-02T00:45:13.506Z,13.30
2023-09-02T00:47:40.708Z,13.30
2023-09-02T00:50:08.617Z,13.30
2023-09-02T00:52:37.461Z,13.30
2023-09-02T00:55:05.004Z,13.30
2023-09-02T00:57:32.320Z,13.30
2023-09-02T01:00:02.068Z,13.30
2023-09-02T01:02:29.599Z,13.30
2023-09-02T01:04:59.238Z,13.30
2023-09-02T01:07:27.697Z,13.30
2023-09-02T01:09:56.995Z,13.30
2023-09-02T01:12:25.174Z,13.30
2023-09-02T01:14:52.764Z,13.20
2023-09-02T01:17:20.037Z,13.20
2023-09-02T01:19:50.641Z,13.20
2023-09-02T01:22:51.528Z,13.10
2023-09-02T01:25:40.067Z,13.10
2023-09-02T01:28:19.307Z,13.10
2023-09-02T01:30:50.153Z,13.10
2023-09-02T01:33:19.338Z,13.00
2023-09-02T01:35:47.214Z,13.00
2023-09-02T01:38:16.166Z,13.00
2023-09-02T01:40:46.115Z,13.00
2023-09-02T01:43:16.055Z,13.00
2023-09-02T01:45:43.809Z,13.00
2023-09-02T01:48:11.752Z,13.00
2023-09-02T01:50:41.337Z,13.00
2023-09-02T01:53:10.151Z,13.00
2023-09-02T01:55:37.586Z,13.00
2023-09-02T01:58:05.257Z,13.00
2023-09-02T02:00:33.080Z,12.90
2023-09-02T02:03:01.333Z,12.90
2023-09-02T02:05:44.249Z,12.90
2023-09-02T02:08:18.332Z,12.90
2023-09-02T02:10:47.249Z,12.80
2023-09-02T02:13:14.516Z,12.80
2023-09-02T02:15:41.652Z,12.80
2023-09-02T02:18:10.021Z,12.80
2023-09-02T02:21:05.746Z,12.80
2023-09-02T02:23:33.153Z,12.70
2023-09-02T02:26:06.024Z,12.70
2023-09-02T02:28:33.375Z,12.70
2023-09-02T02:31:01.314Z,12.60
2023-09-02T02:33:28.746Z,12.50
2023-09-02T02:35:56.116Z,12.50
2023-09-02T02:38:23.794Z,12.50
2023-09-02T02:40:51.023Z,12.50
2023-09-02T02:43:18.628Z,12.50
2023-09-02T02:45:46.116Z,12.50
2023-09-02T02:48:16.936Z,12.50
2023-09-02T02:50:44.507Z,12.50
2023-09-02T02:53:12.638Z,12.50
2023-09-02T02:55:39.872Z,12.50
2023-09-02T02:58:07.526Z,12.40
2023-09-02T03:00:34.785Z,12.40
2023-09-02T03:03:04.593Z,12.40
2023-09-02T03:05:41.474Z,12.30
2023-09-02T03:08:11.520Z,12.30
2023-09-02T03:10:38.864Z,12.30
2023-09-02T03:13:07.025Z,12.30
2023-09-02T03:15:36.083Z,12.30
2023-09-02T03:18:04.109Z,12.30
2023-09-02T03:20:34.026Z,12.20
2023-09-02T03:23:05.963Z,12.20
2023-09-02T03:25:33.431Z,12.20
2023-09-02T03:28:01.867Z,12.10
2023-09-02T03:30:29.240Z,12.10
2023-09-02T03:32:56.517Z,12.10
2023-09-02T03:35:23.848Z,12.10
2023-09-02T03:37:51.008Z,12.10
2023-09-02T03:40:19.071Z,12.00
2023-09-02T03:42:46.350Z,12.00
2023-09-02T03:45:14.783Z,12.00
2023-09-02T03:47:41.974Z,12.00
2023-09-02T03:50:10.839Z,11.90
2023-09-02T03:52:37.984Z,12.00
2023-09-02T03:55:05.728Z,11.90
2023-09-02T03:57:34.306Z,11.90
2023-09-02T04:00:01.440Z,11.90
2023-09-02T04:02:30.334Z,11.90
2023-09-02T04:04:57.905Z,11.90
2023-09-02T04:07:25.326Z,11.90
2023-09-02T04:09:52.695Z,11.90
2023-09-02T04:12:20.462Z,11.90
2023-09-02T04:14:48.849Z,11.90
2023-09-02T04:17:17.883Z,11.90
2023-09-02T04:19:45.660Z,11.90
2023-09-02T04:22:13.730Z,11.80
2023-09-02T04:24:40.946Z,11.80
2023-09-02T04:27:09.158Z,11.80
2023-09-02T04:29:39.070Z,11.80
2023-09-02T04:32:11.146Z,11.80
2023-09-02T04:34:40.306Z,11.80
2023-09-02T04:37:09.496Z,11.80
2023-09-02T04:39:36.734Z,11.80
2023-09-02T04:42:04.882Z,11.80
2023-09-02T04:44:33.426Z,11.80
2023-09-02T04:47:01.181Z,11.80
2023-09-02T04:49:28.989Z,11.80
2023-09-02T04:51:58.876Z,11.80
2023-09-02T04:54:26.354Z,11.80
2023-09-02T04:56:53.974Z,11.80
2023-09-02T04:59:21.228Z,11.80
2023-09-02T05:01:49.149Z,11.80
2023-09-02T05:04:16.814Z,11.70
2023-09-02T05:06:44.270Z,11.80
2023-09-02T05:09:11.792Z,11.80
2023-09-02T05:11:39.043Z,11.80
2023-09-02T05:14:07.471Z,11.80
2023-09-02T05:16:34.822Z,11.80
2023-09-02T05:19:02.428Z,11.80
2023-09-02T05:21:29.773Z,11.80
2023-09-02T05:23:57.128Z,11.90
2023-09-02T05:26:24.428Z,11.90
2023-09-02T05:28:51.799Z,11.90
2023-09-02T05:31:19.032Z,11.90
2023-09-02T05:33:47.364Z,11.90
2023-09-02T05:36:14.697Z,12.00
2023-09-02T05:38:41.965Z,12.00
2023-09-02T05:41:09.318Z,12.10
2023-09-02T05:43:36.507Z,12.10
2023-09-02T05:46:04.465Z,12.20
2023-09-02T05:48:31.953Z,12.20
2023-09-02T05:50:59.340Z,12.20
2023-09-02T05:53:27.312Z,12.30
2023-09-02T05:55:57.888Z,12.30
2023-09-02T05:58:26.237Z,12.40
2023-09-02T06:00:53.727Z,12.40
2023-09-02T06:03:21.409Z,12.50
2023-09-02T06:05:49.033Z,12.50
2023-09-02T06:08:16.791Z,12.50
2023-09-02T06:10:44.041Z,12.60
2023-09-02T06:13:11.300Z,12.70
2023-09-02T06:15:38.871Z,12.70
2023-09-02T06:18:08.705Z,12.80
2023-09-02T06:20:35.956Z,12.80
2023-09-02T06:23:05.944Z,12.90
2023-09-02T06:25:33.567Z,13.00
2023-09-02T06:28:00.829Z,13.00
2023-09-02T06:30:28.278Z,13.10
2023-09-02T06:32:55.643Z,13.10
2023-09-02T06:35:22.954Z,13.20
2023-09-02T06:37:51.065Z,13.30
2023-09-02T06:40:18.451Z,13.30
2023-09-02T06:42:45.713Z,13.40
2023-09-02T06:45:12.997Z,13.50
2023-09-02T06:47:40.271Z,13.50
2023-09-02T06:50:08.111Z,13.60
2023-09-02T06:52:35.447Z,13.70
2023-09-02T06:55:05.133Z,13.70
2023-09-02T06:57:32.730Z,13.90
2023-09-02T07:00:00.136Z,13.90
2023-09-02T07:02:27.405Z,14.00
2023-09-02T07:04:54.673Z,14.00
2023-09-02T07:07:21.917Z,14.10
2023-09-02T07:09:49.176Z,14.10
2023-09-02T07:12:17.307Z,14.20
2023-09-02T07:14:44.757Z,14.30
2023-09-02T07:17:11.987Z,14.40
2023-09-02T07:19:39.313Z,14.50
2023-09-02T07:22:06.543Z,14.60
2023-09-02T07:24:33.683Z,14.70
2023-09-02T07:27:00.903Z,14.80
2023-09-02T07:29:29.683Z,14.90
2023-09-02T07:32:00.030Z,15.00
2023-09-02T07:34:27.243Z,15.10
2023-09-02T07:36:54.519Z,15.20
2023-09-02T07:39:21.714Z,15.30
2023-09-02T07:41:50.060Z,15.50
2023-09-02T07:44:17.399Z,15.50
2023-09-02T07:46:44.637Z,15.60
2023-09-02T07:49:11.794Z,15.70
2023-09-02T07:51:39.076Z,15.80
2023-09-02T07:54:06.197Z,15.90
2023-09-02T07:56:33.404Z,16.00
2023-09-02T07:59:00.509Z,16.00
2023-09-02T08:01:28.546Z,16.10
2023-09-02T08:03:55.895Z,16.10
2023-09-02T08:06:23.169Z,16.20
2023-09-02T08:08:50.363Z,16.40
2023-09-02T08:11:19.181Z,16.40
2023-09-02T08:13:46.568Z,16.50
2023-09-02T08:16:13.911Z,16.60
2023-09-02T08:18:41.193Z,16.70
2023-09-02T08:21:10.776Z,16.80
2023-09-02T08:23:42.126Z,16.80
2023-09-02T08:26:15.027Z,16.90
2023-09-02T08:28:42.814Z,16.90
2023-09-02T08:31:13.376Z,17.00
2023-09-02T08:33:40.684Z,17.00
2023-09-02T08:36:07.869Z,17.20
2023-09-02T08:38:36.052Z,17.20
2023-09-02T08:41:05.684Z,17.20
2023-09-02T08:43:33.057Z,17.30
2023-09-02T08:46:03.806Z,17.40
2023-09-02T08:48:34.624Z,17.50
2023-09-02T08:51:02.549Z,17.50
2023-09-02T08:53:31.556Z,17.50
2023-09-02T08:56:00.987Z,17.60
2023-09-02T08:58:29.071Z,17.60
2023-09-02T09:00:57.047Z,17.70
2023-09-02T09:03:27.919Z,17.80
2023-09-02T09:05:55.338Z,17.80
2023-09-02T09:08:24.281Z,17.90
2023-09-02T09:10:52.167Z,18.00
2023-09-02T09:13:20.295Z,18.10
2023-09-02T09:15:48.442Z,18.10
2023-09-02T09:18:17.529Z,18.20
2023-09-02T09:20:44.769Z,18.20
2023-09-02T09:23:12.007Z,18.30
2023-09-02T09:25:39.227Z,18.50
2023-09-02T09:28:13.784Z,18.50
2023-09-02T09:30:41.137Z,18.70
2023-09-02T09:33:09.380Z,18.80
2023-09-02T09:38:05.245Z,19.00
2023-09-02T09:40:39.398Z,19.10
2023-09-02T09:43:18.545Z,19.20
2023-09-02T09:45:53.359Z,19.20
2023-09-02T09:48:20.674Z,19.20
2023-09-02T09:50:47.828Z,19.10
2023-09-02T09:53:15.075Z,19.00
2023-09-02T09:55:42.403Z,19.00
2023-09-02T09:58:09.508Z,19.00
2023-09-02T10:00:37.421Z,19.10
2023-09-02T10:03:05.147Z,19.10
2023-09-02T10:05:34.714Z,19.20
2023-09-02T10:08:08.024Z,19.20
2023-09-02T10:10:40.127Z,19.20
2023-09-02T10:13:07.872Z,19.30
2023-09-02T10:15:35.050Z,19.40
2023-09-02T10:18:05.567Z,19.50
2023-09-02T10:20:36.416Z,19.50
2023-09-02T10:23:11.618Z,19.50
2023-09-02T10:25:50.139Z,19.50
2023-09-02T10:28:22.801Z,19.40
2023-09-02T10:30:52.761Z,19.40
2023-09-02T10:33:33.289Z,19.50
2023-09-02T10:36:07.498Z,19.50
2023-09-02T10:38:42.780Z,19.50
2023-09-02T10:41:15.644Z,19.70
2023-09-02T10:43:45.340Z,19.70
2023-09-02T10:46:13.199Z,19.70
2023-09-02T10:48:44.707Z,19.90
2023-09-02T10:51:13.153Z,20.00
2023-09-02T10:53:49.524Z,19.90
2023-09-02T10:56:31.680Z,20.20
2023-09-02T10:59:08.884Z,20.30
2023-09-02T11:01:50.293Z,20.30
2023-09-02T11:04:45.302Z,20.40
2023-09-02T11:07:21.798Z,20.60
2023-09-02T11:09:56.626Z,20.60
2023-09-02T11:12:24.330Z,20.60
2023-09-02T11:15:09.940Z,20.70
2023-09-02T11:17:42.203Z,21.00
2023-09-02T11:20:11.205Z,21.30
2023-09-02T11:23:02.823Z,21.60
2023-09-02T11:25:38.568Z,21.50
2023-09-02T11:28:18.741Z,21.50
2023-09-02T11:31:11.320Z,21.50
2023-09-02T11:33:40.116Z,21.40
2023-09-02T11:36:19.381Z,21.30
2023-09-02T11:38:47.085Z,21.30
2023-09-02T11:41:27.034Z,21.50
2023-09-02T11:43:55.378Z,21.70
2023-09-02T11:46:22.761Z,21.50
2023-09-02T11:48:50.044Z,21.50
2023-09-02T11:51:18.451Z,21.50
2023-09-02T11:53:47.687Z,21.90
2023-09-02T11:56:15.192Z,22.10
2023-09-02T11:58:42.391Z,22.20
2023-09-02T12:01:09.652Z,22.20
2023-09-02T12:03:36.835Z,22.20
2023-09-02T12:06:04.896Z,22.00
2023-09-02T12:08:33.008Z,21.90
2023-09-02T12:11:04.683Z,22.00
2023-09-02T12:13:32.759Z,22.20
2023-09-02T12:16:00.246Z,22.50
2023-09-02T12:18:28.767Z,22.20
2023-09-02T12:20:56.560Z,22.20
2023-09-02T12:23:23.828Z,22.00
2023-09-02T12:26:11.170Z,21.80
2023-09-02T12:28:38.615Z,21.90
2023-09-02T12:31:06.153Z,22.00
2023-09-02T12:33:35.506Z,21.90
2023-09-02T12:36:04.240Z,21.60
2023-09-02T12:38:31.474Z,21.60
2023-09-02T12:40:59.163Z,21.90
2023-09-02T12:43:30.047Z,21.90
2023-09-02T12:45:58.084Z,21.90
2023-09-02T12:48:25.831Z,22.00
2023-09-02T12:50:53.114Z,22.50
2023-09-02T12:53:20.626Z,22.80
2023-09-02T12:55:48.477Z,22.60
2023-09-02T12:58:15.806Z,22.50
2023-09-02T13:00:42.964Z,22.90
2023-09-02T13:03:11.855Z,22.90
2023-09-02T13:05:39.081Z,23.10
2023-09-02T13:08:06.681Z,23.00
2023-09-02T13:10:36.365Z,23.00
2023-09-02T13:13:03.819Z,22.90
2023-09-02T13:15:31.643Z,22.90
2023-09-02T13:17:59.094Z,22.90
2023-09-02T13:20:26.337Z,22.90
2023-09-02T13:22:53.497Z,22.80
2023-09-02T13:25:21.897Z,22.70
2023-09-02T13:27:49.305Z,22.80
2023-09-02T13:30:23.501Z,22.90
2023-09-02T13:32:50.809Z,23.10
2023-09-02T13:35:25.000Z,23.40
2023-09-02T13:37:52.723Z,23.60
2023-09-02T13:40:26.743Z,23.80
2023-09-02T13:42:54.709Z,23.90
2023-09-02T13:45:32.320Z,24.20
2023-09-02T13:48:00.871Z,24.50
2023-09-02T13:50:28.492Z,24.40
2023-09-02T13:52:56.761Z,24.20
2023-09-02T13:55:28.294Z,24.20
2023-09-02T13:57:55.759Z,24.70
2023-09-02T14:00:42.249Z,24.80
2023-09-02T14:03:26.300Z,25.20
2023-09-02T14:05:56.364Z,25.00
2023-09-02T14:08:39.060Z,25.30
2023-09-02T14:11:06.879Z,25.10
2023-09-02T14:13:42.074Z,25.50
2023-09-02T14:16:10.526Z,25.60
2023-09-02T14:18:37.992Z,25.40
2023-09-02T14:21:05.412Z,24.80
2023-09-02T14:23:35.210Z,25.00
2023-09-02T14:26:03.650Z,25.00
2023-09-02T14:28:32.133Z,24.90
2023-09-02T14:30:59.693Z,24.20
2023-09-02T14:33:26.913Z,24.00
2023-09-02T14:35:54.119Z,24.00
2023-09-02T14:38:22.638Z,23.90
2023-09-02T14:40:53.092Z,24.20
2023-09-02T14:43:20.415Z,24.90
2023-09-02T14:45:47.781Z,25.00
2023-09-02T14:48:15.099Z,24.70
2023-09-02T14:50:42.641Z,24.80
2023-09-02T14:53:09.942Z,25.20
2023-09-02T14:55:38.743Z,25.00
2023-09-02T14:58:06.028Z,25.40
2023-09-02T15:00:33.318Z,25.00
2023-09-02T15:03:02.774Z,25.30
2023-09-02T15:05:34.186Z,25.50
2023-09-02T15:08:06.424Z,25.20
2023-09-02T15:10:36.752Z,25.10
2023-09-02T15:13:04.611Z,25.10
2023-09-02T15:15:39.900Z,25.30
2023-09-02T15:18:15.101Z,25.40
2023-09-02T15:20:42.360Z,25.50
2023-09-02T15:23:09.837Z,25.20
2023-09-02T15:25:37.165Z,24.70
2023-09-02T15:28:11.044Z,24.50
2023-09-02T15:30:39.060Z,24.70
2023-09-02T15:33:06.229Z,24.40
2023-09-02T15:35:37.011Z,24.20
2023-09-02T15:38:06.680Z,23.80
2023-09-02T15:40:34.312Z,23.80
2023-09-02T15:43:03.735Z,23.70
2023-09-02T15:45:31.183Z,23.60
2023-09-02T15:47:58.769Z,23.20
2023-09-02T15:50:27.986Z,23.00
2023-09-02T15:52:55.082Z,23.10
2023-09-02T15:55:26.410Z,23.10
2023-09-02T15:57:57.116Z,23.30
2023-09-02T16:00:25.050Z,23.10
2023-09-02T16:02:52.430Z,23.20
2023-09-02T16:05:19.995Z,23.50
2023-09-02T16:07:51.300Z,23.40
2023-09-02T16:10:19.290Z,23.20
2023-09-02T16:12:46.671Z,23.20
2023-09-02T16:15:15.211Z,23.00
2023-09-02T16:17:42.727Z,22.70
2023-09-02T16:20:11.821Z,22.80
2023-09-02T16:22:41.651Z,22.60
2023-09-02T16:25:10.955Z,22.30
2023-09-02T16:27:39.817Z,22.00
2023-09-02T16:30:09.650Z,21.80
2023-09-02T16:32:37.272Z,21.70
2023-09-02T16:35:06.470Z,21.60
2023-09-02T16:37:42.277Z,21.40
2023-09-02T16:40:12.481Z,21.40
2023-09-02T16:42:42.317Z,21.40
2023-09-02T16:45:14.179Z,21.30
2023-09-02T16:47:51.110Z,21.20
2023-09-02T16:50:20.227Z,21.10
2023-09-02T16:52:50.541Z,21.20
2023-09-02T16:55:19.734Z,21.40
2023-09-02T16:57:52.282Z,21.30
2023-09-02T17:00:21.993Z,21.20
2023-09-02T17:02:54.240Z,21.30
2023-09-02T17:05:24.890Z,21.10
2023-09-02T17:07:54.077Z,21.10
2023-09-02T17:10:33.780Z,21.00
2023-09-02T17:13:01.199Z,21.00
2023-09-02T17:15:38.507Z,21.00
2023-09-02T17:18:09.732Z,21.00
2023-09-02T17:20:46.864Z,21.10
2023-09-02T17:23:20.622Z,21.00
2023-09-02T17:25:49.956Z,20.80
2023-09-02T17:28:24.208Z,20.60
2023-09-02T17:30:56.981Z,20.30
2023-09-02T17:33:24.227Z,20.10
2023-09-02T17:35:51.583Z,20.00
2023-09-02T17:38:18.960Z,19.70
2023-09-02T17:40:46.482Z,19.70
2023-09-02T17:43:13.603Z,19.50
2023-09-02T17:45:40.776Z,19.40
2023-09-02T17:48:08.086Z,19.40
2023-09-02T17:50:35.357Z,19.30
2023-09-02T17:53:02.566Z,19.30
2023-09-02T17:55:29.834Z,19.20
2023-09-02T17:57:56.971Z,19.10
2023-09-02T18:00:24.142Z,19.00
2023-09-02T18:02:51.668Z,18.90
2023-09-02T18:05:18.965Z,18.80
2023-09-02T18:07:46.065Z,18.70
2023-09-02T18:10:14.777Z,18.60
2023-09-02T18:12:42.283Z,18.50
2023-09-02T18:15:10.726Z,18.40
2023-09-02T18:17:38.187Z,18.30
2023-09-02T18:20:07.100Z,18.20
2023-09-02T18:22:34.396Z,18.20
2023-09-02T18:25:03.365Z,18.00
2023-09-02T18:27:30.847Z,18.00
2023-09-02T18:29:58.094Z,17.90
2023-09-02T18:32:25.374Z,17.90
2023-09-02T18:34:52.856Z,17.80
2023-09-02T18:37:19.971Z,17.80
2023-09-02T18:39:47.406Z,17.70
2023-09-02T18:42:14.505Z,17.70
2023-09-02T18:44:42.885Z,17.60
2023-09-02T18:47:10.272Z,17.60
2023-09-02T18:49:37.450Z,17.60
2023-09-02T18:52:05.029Z,17.60
2023-09-02T18:54:32.235Z,17.60
2023-09-02T18:56:59.335Z,17.60
2023-09-02T18:59:27.056Z,17.50
2023-09-02T19:01:54.228Z,17.50
2023-09-02T19:04:21.389Z,17.50
2023-09-02T19:06:48.512Z,17.50
2023-09-02T19:09:16.553Z,17.40
2023-09-02T19:11:43.694Z,17.40
2023-09-02T19:14:10.785Z,17.30
2023-09-02T19:16:37.935Z,17.20
2023-09-02T19:19:07.907Z,17.10
2023-09-02T19:21:35.802Z,17.00
2023-09-02T19:24:03.144Z,17.00
2023-09-02T19:26:31.150Z,16.90
2023-09-02T19:28:58.352Z,16.80
2023-09-02T19:31:25.448Z,16.80
2023-09-02T19:33:52.575Z,16.70
2023-09-02T19:36:19.769Z,16.60
2023-09-02T19:38:46.925Z,16.60
2023-09-02T19:41:15.440Z,16.60
2023-09-02T19:43:42.642Z,16.50
2023-09-02T19:46:09.943Z,16.50
2023-09-02T19:48:37.075Z,16.50
2023-09-02T19:51:04.239Z,16.50
2023-09-02T19:53:31.386Z,16.50
2023-09-02T19:56:00.490Z,16.50
2023-09-02T19:58:28.087Z,16.50
2023-09-02T20:00:55.382Z,16.40
2023-09-02T20:03:22.630Z,16.50
2023-09-02T20:05:50.228Z,16.40
2023-09-02T20:08:17.944Z,16.40
2023-09-02T20:10:45.397Z,16.40
2023-09-02T20:13:12.536Z,16.40
2023-09-02T20:15:39.830Z,16.40
2023-09-02T20:18:07.078Z,16.40
2023-09-02T20:20:34.282Z,16.40
2023-09-02T20:23:01.522Z,16.40
2023-09-02T20:25:35.352Z,16.40
2023-09-02T20:28:02.820Z,16.40
2023-09-02T20:30:29.961Z,16.40
2023-09-02T20:32:57.202Z,16.40
2023-09-02T20:35:24.366Z,16.40
2023-09-02T20:37:51.480Z,16.40
2023-09-02T20:40:18.663Z,16.30
2023-09-02T20:42:45.912Z,16.20
2023-09-02T20:45:13.078Z,16.30
2023-09-02T20:47:40.182Z,16.20
2023-09-02T20:50:07.910Z,16.30
2023-09-02T20:52:35.161Z,16.20
2023-09-02T20:55:02.309Z,16.20
2023-09-02T20:57:30.351Z,16.20
2023-09-02T20:59:57.661Z,16.20
2023-09-02T21:02:24.902Z,16.20
2023-09-02T21:04:52.141Z,16.20
2023-09-02T21:07:19.306Z,16.20
2023-09-02T21:09:47.280Z,16.10
2023-09-02T21:12:15.803Z,16.10
2023-09-02T21:14:43.045Z,16.10
2023-09-02T21:17:10.173Z,16.00
2023-09-02T21:19:40.338Z,16.00
2023-09-02T21:22:07.503Z,16.00
2023-09-02T21:24:34.791Z,15.90
2023-09-02T21:27:02.031Z,15.90
2023-09-02T21:29:29.902Z,15.80
2023-09-02T21:31:57.013Z,15.80
2023-09-02T21:34:24.180Z,15.80
2023-09-02T21:36:51.383Z,15.80
2023-09-02T21:39:18.622Z,15.80
2023-09-02T21:41:45.731Z,15.70
2023-09-02T21:44:13.639Z,15.60
2023-09-02T21:46:40.935Z,15.60
2023-09-02T21:49:08.915Z,15.60
2023-09-02T21:51:36.141Z,15.50
2023-09-02T21:54:03.392Z,15.40
2023-09-02T21:56:30.504Z,15.30
2023-09-02T21:58:57.644Z,15.30
2023-09-02T22:01:26.279Z,15.20
2023-09-02T22:03:55.056Z,15.20
2023-09-02T22:06:22.376Z,15.20
2023-09-02T22:08:50.567Z,15.10
2023-09-02T22:11:19.459Z,15.10
2023-09-02T22:13:48.025Z,15.00
2023-09-02T22:16:16.041Z,15.00
2023-09-02T22:18:56.120Z,15.00
2023-09-02T22:21:27.634Z,15.00
2023-09-02T22:23:55.045Z,14.90
2023-09-02T22:26:22.352Z,14.90
2023-09-02T22:28:49.498Z,14.90
2023-09-02T22:31:17.296Z,14.80
2023-09-02T22:33:44.817Z,14.80
2023-09-02T22:36:11.957Z,14.80
2023-09-02T22:38:55.605Z,14.70
2023-09-02T22:41:23.847Z,14.70
2023-09-02T22:43:51.183Z,14.70
2023-09-02T22:46:18.371Z,14.70
2023-09-02T22:48:46.757Z,14.60
2023-09-02T22:51:13.876Z,14.60
2023-09-02T22:53:41.382Z,14.60
2023-09-02T22:56:16.934Z,14.50
2023-09-02T22:58:44.474Z,14.50
2023-09-02T23:01:14.070Z,14.50
2023-09-02T23:03:45.359Z,14.50
2023-09-02T23:06:13.111Z,14.40
2023-09-02T23:08:44.926Z,14.40
2023-09-02T23:11:12.092Z,14.40
2023-09-02T23:13:39.179Z,14.40
2023-09-02T23:16:06.440Z,14.30
2023-09-02T23:18:34.648Z,14.30
2023-09-02T23:21:13.896Z,14.20
2023-09-02T23:23:41.353Z,14.20
2023-09-02T23:26:09.333Z,14.10
2023-09-02T23:28:38.316Z,14.10
2023-09-02T23:31:06.657Z,14.10
2023-09-02T23:33:34.508Z,14.10
2023-09-02T23:36:04.945Z,14.10
2023-09-02T23:38:32.381Z,14.00
2023-09-02T23:40:59.785Z,14.00
2023-09-02T23:43:26.962Z,13.90
2023-09-02T23:45:54.229Z,13.90
2023-09-02T23:48:22.418Z,13.80
2023-09-02T23:50:51.701Z,13.70
2023-09-02T23:53:19.096Z,13.70
2023-09-02T23:55:49.393Z,13.70
2023-09-02T23:58:16.860Z,13.70
